Time;durP1;ratioP1;P1;durP2;ratioP2;P2;SDS_P1;SDS_P2;PMS_P1;PMS_P2;Temp;Humidity;BMP_temperature;BMP_pressure;BME280_temperature;BME280_humidity;BME280_pressure;Samples;Min_cycle;Max_cycle;Signal;HPM_P1;HPM_P2
2022/01/08 00:01:30;;;;;;;2.56;1.86;;;;;;;2.60;94.64;98554.31;2027215;79;20962;-71
2022/01/08 00:04:33;;;;;;;2.26;1.44;;;;;;;2.57;94.76;98548.31;2026691;79;20378;-72
2022/01/08 00:07:36;;;;;;;3.70;1.70;;;;;;;2.56;94.98;98546.59;2026914;79;20344;-72
2022/01/08 00:10:40;;;;;;;1.44;1.30;;;;;;;2.53;94.96;98544.00;2027158;79;20348;-72
2022/01/08 00:13:43;;;;;;;1.54;1.42;;;;;;;2.49;95.18;98534.50;2025674;79;20726;-72
2022/01/08 00:16:45;;;;;;;2.17;1.30;;;;;;;2.49;95.54;98535.38;2027648;76;23238;-72
2022/01/08 00:19:50;;;;;;;1.64;1.14;;;;;;;2.49;95.61;98519.13;2030983;79;20345;-72
2022/01/08 00:22:54;;;;;;;2.00;1.30;;;;;;;2.50;95.79;98513.19;2029937;79;20869;-72
2022/01/08 00:26:00;;;;;;;1.20;1.10;;;;;;;2.52;95.90;98503.84;2032048;79;20335;-72
2022/01/08 00:29:03;;;;;;;1.36;1.10;;;;;;;2.53;96.13;98500.44;2031254;79;20815;-72
2022/01/08 00:35:20;;;;;;;1.45;0.98;;;;;;;2.58;96.16;98498.78;2071636;69;20543;-72
2022/01/08 00:38:22;;;;;;;1.13;0.90;;;;;;;2.59;96.21;98492.81;2024458;79;20862;-72
2022/01/08 00:41:25;;;;;;;2.29;0.90;;;;;;;2.60;96.30;98481.72;2026973;79;20351;-72
2022/01/08 00:44:28;;;;;;;1.63;1.08;;;;;;;2.61;96.39;98486.88;2027735;79;20337;-72
2022/01/08 00:47:31;;;;;;;0.89;0.70;;;;;;;2.62;96.44;98473.19;2029862;76;22478;-72
2022/01/08 00:50:33;;;;;;;0.82;0.60;;;;;;;2.65;96.46;98485.19;2033242;79;20340;-72
2022/01/08 00:53:36;;;;;;;0.64;0.64;;;;;;;2.64;96.13;98466.41;2033139;79;20815;-71
2022/01/08 00:56:39;;;;;;;1.24;0.86;;;;;;;2.61;96.13;98466.38;2032460;79;20309;-71
2022/01/08 00:59:42;;;;;;;0.73;0.71;;;;;;;2.63;96.18;98462.13;2033171;79;20318;-71
2022/01/08 01:02:44;;;;;;;1.63;0.70;;;;;;;2.63;96.17;98463.81;2030705;76;21271;-71
2022/01/08 01:05:47;;;;;;;0.71;0.70;;;;;;;2.63;96.06;98459.56;2032257;79;20329;-71
2022/01/08 01:08:50;;;;;;;0.85;0.61;;;;;;;2.64;95.99;98478.34;2032413;79;20346;-71
2022/01/08 01:11:57;;;;;;;0.80;0.80;;;;;;;2.60;95.59;98467.22;2031885;79;20862;-71
2022/01/08 01:14:59;;;;;;;0.85;0.60;;;;;;;2.62;95.58;98480.03;2032073;79;20333;-71
2022/01/08 01:18:02;;;;;;;0.99;0.60;;;;;;;2.57;95.40;98489.38;2026848;77;23574;-71
2022/01/08 01:21:05;;;;;;;0.71;0.71;;;;;;;2.54;95.54;98487.63;2027379;79;20424;-71
2022/01/08 01:24:18;;;;;;;1.21;0.71;;;;;;;2.45;95.44;98461.88;2027206;79;20382;-71
2022/01/08 01:47:10;;;;;;;0.80;0.61;;;;;;;2.39;95.74;98493.41;2030453;76;23533;-71
2022/01/08 01:50:12;;;;;;;0.63;0.60;;;;;;;2.41;95.83;98486.59;2031938;79;20348;-71
2022/01/08 01:53:15;;;;;;;0.63;0.63;;;;;;;2.42;95.86;98483.22;2032677;79;20422;-71
2022/01/08 01:56:19;;;;;;;0.70;0.70;;;;;;;2.47;96.01;98488.38;2032789;79;20342;-71
2022/01/08 01:59:22;;;;;;;0.70;0.70;;;;;;;2.51;95.97;98487.56;2032064;79;20353;-71
2022/01/08 02:02:25;;;;;;;0.70;0.70;;;;;;;2.50;95.70;98485.00;2030699;76;21311;-71
2022/01/08 02:05:27;;;;;;;0.64;0.64;;;;;;;2.48;95.67;98492.66;2032069;79;20577;-71
2022/01/08 02:08:30;;;;;;;0.57;0.57;;;;;;;2.50;95.73;98488.41;2031565;79;20386;-72
2022/01/08 02:11:33;;;;;;;0.60;0.60;;;;;;;2.53;95.68;98500.44;2035821;79;20490;-72
2022/01/08 02:14:37;;;;;;;0.69;0.68;;;;;;;2.54;95.83;98504.72;2032533;79;20313;-72
2022/01/08 02:17:40;;;;;;;0.40;0.40;;;;;;;2.57;95.74;98502.19;2030077;77;21766;-71
2022/01/08 02:20:43;;;;;;;0.40;0.40;;;;;;;2.57;95.74;98517.56;2032697;79;20338;-72
2022/01/08 02:23:47;;;;;;;0.40;0.40;;;;;;;2.56;95.61;98523.53;2032717;79;20337;-71
2022/01/08 02:26:50;;;;;;;0.68;0.31;;;;;;;2.56;95.87;98534.63;2032270;79;20321;-72
2022/01/08 02:29:53;;;;;;;0.30;0.30;;;;;;;2.55;95.72;98544.88;2032388;79;20835;-71
2022/01/08 02:32:55;;;;;;;0.32;0.29;;;;;;;2.55;95.74;98552.56;2025613;77;22824;-72
2022/01/08 02:36:04;;;;;;;0.30;0.30;;;;;;;2.55;95.59;98555.97;2027424;80;20352;-72
2022/01/08 02:39:07;;;;;;;0.30;0.30;;;;;;;2.49;95.09;98578.94;2030710;79;20482;-71
2022/01/08 02:42:14;;;;;;;0.22;0.21;;;;;;;2.46;94.84;98593.41;2027762;79;20284;-71
2022/01/08 02:45:18;;;;;;;0.20;0.20;;;;;;;2.39;94.62;98598.44;2026610;76;23101;-72
2022/01/08 02:48:21;;;;;;;0.24;0.20;;;;;;;2.36;94.47;98625.72;2033198;79;20347;-72
2022/01/08 02:51:24;;;;;;;0.20;0.20;;;;;;;2.34;94.48;98633.38;2033546;79;20362;-72
2022/01/08 02:54:27;;;;;;;0.10;0.10;;;;;;;2.33;94.40;98662.38;2032902;79;20310;-72
2022/01/08 02:57:30;;;;;;;0.10;0.10;;;;;;;2.27;94.28;98651.16;2032765;79;20329;-72
2022/01/08 03:00:32;;;;;;;0.14;0.14;;;;;;;2.25;94.22;98669.06;2031431;77;22063;-72
2022/01/08 03:03:35;;;;;;;0.15;0.15;;;;;;;2.19;93.92;98686.03;2033434;79;20359;-72
2022/01/08 03:06:38;;;;;;;0.17;0.17;;;;;;;2.12;93.68;98703.84;2032827;79;20417;-72
2022/01/08 03:09:42;;;;;;;0.10;0.10;;;;;;;2.07;93.54;98713.16;2035358;79;20796;-71
2022/01/08 03:12:45;;;;;;;0.10;0.10;;;;;;;2.01;93.47;98715.59;2033170;79;20337;-72
2022/01/08 03:15:48;;;;;;;0.10;0.10;;;;;;;1.95;93.35;98745.31;2031035;76;22423;-72
2022/01/08 03:18:51;;;;;;;0.10;0.10;;;;;;;1.89;93.20;98756.31;2032947;79;20330;-71
2022/01/08 03:21:55;;;;;;;0.10;0.10;;;;;;;1.86;93.46;98763.94;2033194;79;20386;-72
2022/01/08 03:24:59;;;;;;;0.10;0.10;;;;;;;1.89;93.71;98774.25;2034411;79;20450;-72
2022/01/08 03:28:02;;;;;;;0.10;0.10;;;;;;;1.89;93.72;98779.34;2034319;79;20347;-72
2022/01/08 03:31:04;;;;;;;0.10;0.10;;;;;;;1.90;93.90;98793.88;2035221;76;21504;-72
2022/01/08 03:34:07;;;;;;;0.20;0.10;;;;;;;1.92;93.96;98806.72;2034162;79;20317;-72
2022/01/08 03:37:10;;;;;;;0.31;0.10;;;;;;;1.93;94.01;98816.97;2033829;79;20390;-72
2022/01/08 03:40:13;;;;;;;0.57;0.20;;;;;;;1.96;93.87;98827.28;2034077;79;20343;-72
2022/01/08 03:43:16;;;;;;;0.10;0.10;;;;;;;1.98;93.75;98833.31;2034158;79;20330;-72
2022/01/08 03:46:20;;;;;;;0.63;0.20;;;;;;;1.99;93.63;98840.16;2029970;76;21347;-72
2022/01/08 03:49:25;;;;;;;0.19;0.19;;;;;;;2.02;93.65;98847.03;2028491;79;20348;-72
2022/01/08 03:52:27;;;;;;;0.63;0.20;;;;;;;2.07;93.72;98863.34;2028493;79;20925;-72
2022/01/08 03:55:30;;;;;;;0.45;0.20;;;;;;;2.09;93.63;98870.22;2028807;79;20428;-72
2022/01/08 03:58:33;;;;;;;0.30;0.30;;;;;;;2.07;93.38;98865.91;2028946;79;20810;-72
2022/01/08 04:01:35;;;;;;;0.30;0.30;;;;;;;2.04;93.38;98868.41;2027269;76;21492;-72
2022/01/08 04:04:38;;;;;;;0.56;0.32;;;;;;;2.04;93.17;98870.97;2028462;79;21251;-72
2022/01/08 04:07:41;;;;;;;0.69;0.24;;;;;;;2.05;92.94;98880.38;2029062;79;20395;-72
2022/01/08 04:10:44;;;;;;;1.90;0.32;;;;;;;2.06;92.83;98885.53;2028352;79;20412;-72
2022/01/08 04:13:47;;;;;;;1.17;0.55;;;;;;;2.07;92.72;98889.81;2028695;79;20344;-72
2022/01/08 04:16:52;;;;;;;1.73;0.40;;;;;;;2.09;92.64;98902.66;2030029;76;27354;-72
2022/01/08 04:19:55;;;;;;;1.48;0.40;;;;;;;2.07;92.55;98907.75;2033862;79;20938;-72
2022/01/08 04:22:57;;;;;;;1.16;0.50;;;;;;;2.08;92.53;98921.41;2034544;79;21104;-72
2022/01/08 04:26:00;;;;;;;3.11;0.44;;;;;;;2.08;92.49;98922.28;2033866;79;20426;-72
2022/01/08 04:29:05;;;;;;;1.73;0.60;;;;;;;2.07;92.46;98932.47;2033490;79;20310;-72
2022/01/08 04:32:08;;;;;;;0.40;0.40;;;;;;;2.07;92.45;98950.41;2032078;76;20361;-72
2022/01/08 04:35:10;;;;;;;2.70;0.50;;;;;;;2.09;92.52;98941.94;2034010;79;21260;-72
2022/01/08 04:38:13;;;;;;;0.50;0.40;;;;;;;2.07;92.33;98951.28;2033537;79;20457;-72
2022/01/08 04:41:16;;;;;;;1.01;0.40;;;;;;;2.06;92.37;98951.25;2033997;79;20428;-72
2022/01/08 04:44:18;;;;;;;4.04;0.63;;;;;;;2.08;92.35;98959.81;2033221;79;20334;-72
2022/01/08 04:47:21;;;;;;;1.04;0.56;;;;;;;2.09;92.22;98969.22;2031443;76;22505;-72
2022/01/08 04:50:25;;;;;;;1.66;0.61;;;;;;;2.07;91.91;98969.19;2033804;79;20314;-72
2022/01/08 04:53:28;;;;;;;1.04;0.77;;;;;;;2.07;91.61;98976.88;2033374;79;20318;-72
2022/01/08 04:56:30;;;;;;;1.79;0.60;;;;;;;2.11;91.64;98975.25;2033593;79;20458;-72
2022/01/08 04:59:33;;;;;;;2.40;0.55;;;;;;;2.10;91.40;98986.31;2033610;79;20379;-72
2022/01/08 05:02:35;;;;;;;0.98;0.60;;;;;;;2.12;91.29;98994.91;2031948;76;20827;-72
2022/01/08 05:05:38;;;;;;;1.86;0.77;;;;;;;2.09;91.03;98993.13;2033609;79;20447;-72
2022/01/08 05:08:41;;;;;;;1.66;0.88;;;;;;;2.06;90.54;98993.06;2034121;79;20359;-71
2022/01/08 05:11:43;;;;;;;1.06;0.80;;;;;;;2.03;89.81;98997.25;2032752;79;20325;-72
2022/01/08 05:14:46;;;;;;;2.13;1.30;;;;;;;2.01;89.17;99012.59;2033117;79;20370;-72
2022/01/08 05:17:54;;;;;;;4.05;0.99;;;;;;;1.99;88.75;99009.13;2032110;76;24923;-72
2022/01/08 05:21:09;;;;;;;3.53;0.77;;;;;;;2.00;88.34;99021.09;2033206;79;20439;-72
2022/01/08 05:24:11;;;;;;;1.45;0.90;;;;;;;1.99;88.11;99037.31;2033574;79;20796;-72
2022/01/08 05:27:17;;;;;;;3.91;0.94;;;;;;;1.98;88.44;99030.44;2033233;79;20331;-72
2022/01/08 05:30:21;;;;;;;2.38;1.06;;;;;;;2.00;88.77;99038.16;2032105;77;21515;-72
2022/01/08 05:33:24;;;;;;;1.70;0.82;;;;;;;1.97;89.02;99045.75;2027808;79;20372;-72
2022/01/08 05:36:27;;;;;;;1.61;0.80;;;;;;;1.94;89.17;99051.66;2027484;79;20357;-72
2022/01/08 05:39:29;;;;;;;3.76;1.00;;;;;;;1.88;89.56;99060.91;2028299;79;20303;-72
2022/01/08 05:42:32;;;;;;;3.30;1.11;;;;;;;1.79;89.60;99071.75;2027397;79;20470;-72
2022/01/08 05:45:35;;;;;;;1.79;0.82;;;;;;;1.63;89.52;99075.66;2025951;77;20565;-72
2022/01/08 05:48:40;;;;;;;1.13;0.90;;;;;;;1.52;89.93;99090.69;2027398;79;20458;-72
2022/01/08 05:51:42;;;;;;;1.44;0.95;;;;;;;1.46;90.33;99095.66;2027376;79;20380;-72
2022/01/08 05:54:45;;;;;;;1.96;0.77;;;;;;;1.37;90.61;99108.19;2026831;79;20313;-72
2022/01/08 05:57:48;;;;;;;1.16;0.90;;;;;;;1.30;91.16;99121.66;2028002;79;20387;-72
2022/01/08 06:00:50;;;;;;;1.20;1.00;;;;;;;1.31;91.69;99123.38;2025520;76;24058;-72
2022/01/08 06:03:53;;;;;;;2.09;0.98;;;;;;;1.31;92.00;99125.06;2027728;79;21113;-72
2022/01/08 06:06:56;;;;;;;3.05;1.00;;;;;;;1.32;92.37;99122.56;2027651;80;20323;-72
2022/01/08 06:09:58;;;;;;;2.64;1.01;;;;;;;1.32;92.43;99137.03;2027149;80;20326;-72
2022/01/08 06:13:01;;;;;;;3.30;0.90;;;;;;;1.32;92.67;99134.47;2030422;79;20455;-72
2022/01/08 06:16:04;;;;;;;2.28;0.99;;;;;;;1.35;92.88;99144.78;2026762;77;23159;-72
2022/01/08 06:19:12;;;;;;;2.56;1.09;;;;;;;1.37;92.72;99158.47;2028798;79;20326;-72
2022/01/08 06:22:14;;;;;;;4.26;1.42;;;;;;;1.37;92.87;99161.91;2028116;79;20859;-72
2022/01/08 06:25:17;;;;;;;3.24;1.09;;;;;;;1.36;92.93;99156.75;2027766;79;20733;-72
2022/01/08 06:28:20;;;;;;;2.06;1.00;;;;;;;1.37;93.13;99156.78;2028522;79;20340;-72
2022/01/08 06:31:23;;;;;;;4.28;1.06;;;;;;;1.33;92.94;99144.75;2029404;77;33139;-72
2022/01/08 06:34:26;;;;;;;2.03;1.23;;;;;;;1.28;92.79;99150.56;2033918;79;20341;-72
2022/01/08 06:37:28;;;;;;;3.64;1.00;;;;;;;1.23;92.55;99154.66;2033970;79;20365;-72
2022/01/08 06:40:32;;;;;;;3.91;1.10;;;;;;;1.15;92.81;99152.75;2034039;79;20366;-72
2022/01/08 06:43:34;;;;;;;2.92;0.91;;;;;;;1.11;92.81;99156.06;2033411;79;20326;-72
2022/01/08 06:46:37;;;;;;;3.90;1.23;;;;;;;1.07;92.88;99166.13;2031759;76;21300;-72
2022/01/08 06:49:40;;;;;;;4.28;1.20;;;;;;;1.03;92.88;99170.28;2032884;79;20697;-72
2022/01/08 06:52:42;;;;;;;1.44;1.01;;;;;;;0.98;92.88;99169.28;2033712;79;20271;-72
2022/01/08 06:55:45;;;;;;;3.10;1.07;;;;;;;0.98;92.99;99168.44;2033553;79;20447;-72
2022/01/08 06:58:48;;;;;;;1.64;1.00;;;;;;;0.89;92.78;99172.41;2033721;79;20698;-72
2022/01/08 07:01:51;;;;;;;3.00;1.29;;;;;;;0.84;92.75;99184.19;2032404;79;20882;-72
2022/01/08 07:04:53;;;;;;;2.11;1.00;;;;;;;0.73;92.61;99193.25;2032882;79;20914;-72
2022/01/08 07:07:56;;;;;;;3.26;1.07;;;;;;;0.63;92.83;99198.00;2033259;79;20166;-72
2022/01/08 07:10:58;;;;;;;3.78;1.01;;;;;;;0.55;92.97;99205.44;2033018;79;20194;-72
2022/01/08 07:14:02;;;;;;;2.43;0.86;;;;;;;0.49;93.00;99231.63;2032840;79;20351;-72
2022/01/08 07:17:05;;;;;;;3.15;0.91;;;;;;;0.39;93.12;99239.81;2028030;77;22449;-72
2022/01/08 07:20:08;;;;;;;2.93;0.89;;;;;;;0.34;93.37;99248.13;2026995;79;20348;-72
2022/01/08 07:23:11;;;;;;;3.51;0.78;;;;;;;0.34;93.79;99243.00;2028075;79;20638;-72
2022/01/08 07:26:14;;;;;;;2.32;1.00;;;;;;;0.36;94.02;99243.94;2028488;79;20310;-73
2022/01/08 07:29:17;;;;;;;1.48;0.90;;;;;;;0.37;94.23;99238.03;2028436;79;20244;-73
2022/01/08 07:32:19;;;;;;;2.18;0.98;;;;;;;0.40;94.56;99244.13;2033474;77;20902;-73
2022/01/08 07:35:22;;;;;;;2.83;0.90;;;;;;;0.42;94.61;99236.50;2033383;79;20835;-72
2022/01/08 07:38:25;;;;;;;0.73;0.69;;;;;;;0.42;94.75;99239.06;2032948;79;20203;-73
2022/01/08 07:41:27;;;;;;;5.93;0.95;;;;;;;0.41;94.81;99235.63;2036463;79;20463;-74
2022/01/08 07:44:30;;;;;;;2.76;0.70;;;;;;;0.44;95.20;99240.84;2034188;79;20322;-72
2022/01/08 07:47:33;;;;;;;2.24;0.70;;;;;;;0.50;95.51;99238.47;2035080;77;20878;-75
2022/01/08 07:50:36;;;;;;;1.71;0.66;;;;;;;0.60;95.79;99237.09;2033739;79;20408;-74
2022/01/08 07:53:38;;;;;;;2.86;0.83;;;;;;;0.63;95.80;99237.19;2033735;79;20325;-74
2022/01/08 07:56:41;;;;;;;2.69;0.70;;;;;;;0.68;95.93;99239.88;2034452;79;20266;-74
2022/01/08 07:59:44;;;;;;;5.01;0.98;;;;;;;0.71;96.08;99256.19;2033410;79;20904;-74
2022/01/08 08:02:46;;;;;;;1.85;0.74;;;;;;;0.74;96.09;99248.63;2031664;76;21573;-74
2022/01/08 08:05:50;;;;;;;1.23;0.70;;;;;;;0.75;96.13;99268.25;2034143;79;20330;-74
2022/01/08 08:08:52;;;;;;;2.54;0.90;;;;;;;0.80;96.30;99260.72;2034171;79;20349;-74
2022/01/08 08:11:55;;;;;;;2.29;0.79;;;;;;;0.84;96.50;99275.34;2033524;79;20337;-74
2022/01/08 08:14:58;;;;;;;2.74;0.70;;;;;;;0.90;96.56;99260.22;2034379;79;20358;-73
2022/01/08 08:18:00;;;;;;;2.31;0.80;;;;;;;0.93;96.60;99265.44;2026004;77;22099;-73
2022/01/08 08:21:03;;;;;;;1.93;0.82;;;;;;;0.99;96.75;99252.81;2028006;79;20362;-73
2022/01/08 08:24:06;;;;;;;2.70;0.73;;;;;;;1.05;96.72;99267.47;2027766;79;20307;-72
2022/01/08 08:27:08;;;;;;;2.06;0.96;;;;;;;1.12;96.87;99254.94;2027880;79;20480;-73
2022/01/08 08:30:11;;;;;;;1.86;0.90;;;;;;;1.20;96.91;99271.38;2026981;79;20326;-72
2022/01/08 08:33:14;;;;;;;2.63;1.46;;;;;;;1.26;96.78;99269.81;2027157;76;20378;-72
2022/01/08 08:36:16;;;;;;;2.53;1.02;;;;;;;1.31;96.68;99269.16;2027580;79;20227;-72
2022/01/08 08:39:19;;;;;;;2.78;1.02;;;;;;;1.38;96.75;99271.06;2026832;79;20342;-75
2022/01/08 08:42:22;;;;;;;4.20;1.61;;;;;;;1.43;96.60;99273.75;2028680;79;20327;-74
2022/01/08 08:45:24;;;;;;;5.54;1.35;;;;;;;1.44;96.50;99285.75;2024779;79;20918;-73
2022/01/08 08:48:27;;;;;;;2.94;1.24;;;;;;;1.47;96.57;99285.84;2028578;79;20335;-73
2022/01/08 08:51:29;;;;;;;2.91;1.40;;;;;;;1.52;96.59;99289.41;2027569;79;20335;-73
2022/01/08 08:54:34;;;;;;;2.01;1.21;;;;;;;1.59;96.69;99275.06;2027488;79;20366;-72
2022/01/08 08:57:37;;;;;;;2.20;1.52;;;;;;;1.65;96.70;99271.03;2027157;79;20339;-72
2022/01/08 09:00:40;;;;;;;1.50;0.98;;;;;;;1.75;96.72;99261.91;2026175;77;21593;-73
2022/01/08 09:03:43;;;;;;;3.65;1.23;;;;;;;1.80;96.50;99260.38;2027464;79;20375;-72
2022/01/08 09:06:45;;;;;;;5.03;1.39;;;;;;;1.79;95.95;99268.84;2026262;79;20346;-73
2022/01/08 09:09:48;;;;;;;2.69;1.09;;;;;;;1.84;95.76;99266.44;2028475;79;20472;-74
2022/01/08 09:12:52;;;;;;;3.59;0.94;;;;;;;1.87;95.59;99269.06;2028163;79;20348;-74
2022/01/08 09:15:55;;;;;;;5.13;1.36;;;;;;;1.89;95.44;99263.16;2028623;77;21076;-73
2022/01/08 09:18:59;;;;;;;3.20;1.20;;;;;;;1.91;95.02;99263.22;2027906;79;20336;-73
2022/01/08 09:22:02;;;;;;;3.41;1.29;;;;;;;1.92;94.66;99260.69;2027619;79;20341;-73
2022/01/08 09:25:05;;;;;;;2.78;1.05;;;;;;;1.97;94.49;99266.78;2027445;79;21193;-74
2022/01/08 09:28:07;;;;;;;5.55;1.09;;;;;;;2.03;94.26;99263.56;2027308;79;20389;-74
2022/01/08 09:31:11;;;;;;;3.47;1.15;;;;;;;2.07;93.88;99263.66;2025850;77;21420;-73
2022/01/08 09:34:13;;;;;;;3.14;1.58;;;;;;;2.10;93.42;99263.75;2027474;79;21011;-73
2022/01/08 09:37:17;;;;;;;2.47;1.17;;;;;;;2.12;92.90;99272.34;2026908;79;21040;-73
2022/01/08 09:40:21;;;;;;;2.70;1.06;;;;;;;2.15;92.57;99275.81;2027464;79;20311;-73
2022/01/08 09:43:24;;;;;;;3.26;1.25;;;;;;;2.18;92.26;99275.91;2027020;79;20361;-75
2022/01/08 09:46:27;;;;;;;2.16;1.04;;;;;;;2.18;91.88;99275.91;2025872;77;22000;-75
2022/01/08 09:49:30;;;;;;;2.67;1.23;;;;;;;2.19;91.78;99267.41;2027160;79;20370;-77
2022/01/08 09:52:33;;;;;;;3.00;1.73;;;;;;;2.24;92.00;99273.50;2027259;79;20315;-76
2022/01/08 09:55:36;;;;;;;4.53;1.20;;;;;;;2.28;91.83;99267.63;2030913;79;20414;-75
2022/01/08 09:58:38;;;;;;;5.41;1.75;;;;;;;2.29;90.94;99270.22;2027427;79;20344;-75
2022/01/08 10:01:42;;;;;;;4.38;1.51;;;;;;;2.33;90.91;99266.91;2026358;77;20896;-75
2022/01/08 10:04:44;;;;;;;3.96;1.59;;;;;;;2.42;90.61;99259.47;2027487;80;20813;-76
2022/01/08 10:08:00;;;;;;;4.43;2.05;;;;;;;2.52;90.54;99247.78;2027971;79;20421;-75
2022/01/08 10:11:07;;;;;;;2.03;1.46;;;;;;;2.62;90.37;99238.63;2027638;79;20694;-76
2022/01/08 10:14:17;;;;;;;2.80;1.48;;;;;;;2.64;90.02;99231.81;2028360;80;20388;-76
2022/01/08 10:17:42;;;;;;;1.81;1.20;;;;;;;2.66;89.78;99236.16;2030191;77;21782;-75
2022/01/08 10:20:49;;;;;;;3.66;1.35;;;;;;;2.73;89.89;99234.63;2031720;79;20333;-75
2022/01/08 10:24:04;;;;;;;5.24;1.80;;;;;;;2.73;89.51;99232.94;2030820;79;20318;-76
2022/01/08 10:27:07;;;;;;;2.29;1.35;;;;;;;2.68;88.63;99233.63;2030201;79;20317;-76
2022/01/08 10:30:26;;;;;;;2.58;1.51;;;;;;;2.60;88.35;99228.31;2030129;79;20322;-76
2022/01/08 10:33:28;;;;;;;3.80;1.10;;;;;;;2.55;88.30;99223.94;2026352;80;21249;-76
2022/01/08 10:36:35;;;;;;;2.74;1.30;;;;;;;2.58;88.79;99222.28;2027023;79;20210;-76
2022/01/08 10:39:40;;;;;;;2.09;1.01;;;;;;;2.66;89.11;99207.97;2026350;79;20365;-76
2022/01/08 10:42:42;;;;;;;2.54;0.90;;;;;;;2.78;89.17;99209.09;2026880;79;20376;-76
2022/01/08 10:45:45;;;;;;;2.06;1.09;;;;;;;2.80;88.58;99204.88;2028842;76;21478;-76
2022/01/08 10:48:50;;;;;;;2.21;0.90;;;;;;;2.82;88.03;99201.50;2032477;79;20322;-76
2022/01/08 10:51:56;;;;;;;2.46;0.80;;;;;;;2.87;88.21;99199.94;2032256;79;20347;-76
2022/01/08 10:55:00;;;;;;;1.85;0.80;;;;;;;2.88;87.80;99188.84;2032324;79;20333;-76
2022/01/08 10:58:03;;;;;;;1.56;1.08;;;;;;;2.92;87.36;99174.38;2030967;79;21171;-76
2022/01/08 11:01:06;;;;;;;4.54;1.00;;;;;;;2.93;86.68;99161.59;2033808;76;21148;-76
2022/01/08 11:04:12;;;;;;;1.34;0.63;;;;;;;3.01;87.04;99151.50;2031720;79;20355;-76
2022/01/08 11:07:18;;;;;;;2.86;0.55;;;;;;;3.10;86.54;99148.28;2032761;79;20727;-76
2022/01/08 11:10:22;;;;;;;3.97;0.77;;;;;;;3.14;86.25;99140.66;2036063;79;20317;-76
2022/01/08 11:13:25;;;;;;;3.86;0.95;;;;;;;3.22;86.21;99138.25;2032947;79;21053;-75
2022/01/08 11:16:29;;;;;;;7.97;0.82;;;;;;;3.22;85.59;99149.38;2028501;77;24360;-75
2022/01/08 11:19:34;;;;;;;1.56;0.70;;;;;;;3.21;85.34;99139.94;2027699;79;20303;-75
2022/01/08 11:22:43;;;;;;;2.80;0.63;;;;;;;3.20;85.02;99134.78;2029387;79;20374;-75
2022/01/08 11:25:48;;;;;;;1.36;0.63;;;;;;;3.23;85.35;99117.78;2027008;79;20323;-75
2022/01/08 11:28:59;;;;;;;0.73;0.63;;;;;;;3.31;85.63;99116.22;2029071;79;20202;-76
2022/01/08 11:32:03;;;;;;;3.03;0.60;;;;;;;3.37;86.06;99107.78;2024415;76;22326;-76
2022/01/08 11:35:08;;;;;;;4.47;0.85;;;;;;;3.36;84.57;99098.34;2029404;79;20419;-76
2022/01/08 11:38:13;;;;;;;2.17;0.70;;;;;;;3.34;84.22;99082.06;2026727;79;20335;-76
2022/01/08 11:41:16;;;;;;;2.95;0.63;;;;;;;3.36;83.88;99070.13;2025521;79;20360;-76
2022/01/08 11:44:19;;;;;;;2.60;1.08;;;;;;;3.40;83.90;99069.34;2025655;79;20352;-76
2022/01/08 11:47:22;;;;;;;1.00;0.50;;;;;;;3.40;83.71;99066.78;2024509;77;21856;-76
2022/01/08 11:50:28;;;;;;;6.79;1.00;;;;;;;3.44;83.80;99066.00;2026066;79;20326;-76
2022/01/08 11:53:52;;;;;;;2.24;0.61;;;;;;;3.41;83.59;99057.38;2025476;79;20355;-75
2022/01/08 11:57:14;;;;;;;2.72;0.51;;;;;;;3.39;83.70;99031.69;2025989;79;20326;-76
2022/01/08 12:00:47;;;;;;;2.20;0.80;;;;;;;3.46;84.44;99022.41;2025766;79;21172;-76
2022/01/08 12:03:51;;;;;;;3.08;0.66;;;;;;;3.52;84.09;99023.38;2025666;79;20423;-75
2022/01/08 12:06:55;;;;;;;1.20;0.60;;;;;;;3.56;84.43;99016.59;2026572;79;20326;-75
2022/01/08 12:10:20;;;;;;;2.03;0.60;;;;;;;3.57;83.96;99014.03;2025789;79;21059;-75
2022/01/08 12:13:46;;;;;;;1.94;0.50;;;;;;;3.53;83.54;99002.00;2026252;79;20522;-75
2022/01/08 12:16:51;;;;;;;1.88;0.80;;;;;;;3.53;83.43;98993.44;2024585;76;22338;-76
2022/01/08 12:19:56;;;;;;;3.61;0.70;;;;;;;3.50;83.12;98976.28;2029486;79;20334;-75
2022/01/08 12:23:31;;;;;;;3.47;0.73;;;;;;;3.47;82.95;98968.53;2025631;79;20354;-76
2022/01/08 12:26:37;;;;;;;2.74;0.88;;;;;;;3.45;83.25;98947.13;2026078;79;20398;-76
2022/01/08 12:29:41;;;;;;;1.64;0.77;;;;;;;3.49;83.48;98940.34;2025768;79;20431;-76
2022/01/08 12:32:51;;;;;;;1.41;0.56;;;;;;;3.54;83.84;98931.00;2024147;77;20484;-76
2022/01/08 12:36:23;;;;;;;2.03;0.60;;;;;;;3.60;83.94;98919.16;2026202;79;20795;-76
2022/01/08 12:39:50;;;;;;;0.93;0.73;;;;;;;3.66;83.08;98917.50;2026343;79;20314;-76
2022/01/08 12:42:53;;;;;;;2.49;0.57;;;;;;;3.61;82.62;98909.75;2025615;79;20323;-76
2022/01/08 12:46:12;;;;;;;1.33;0.80;;;;;;;3.63;82.36;98915.75;2025131;76;20927;-76
2022/01/08 12:49:15;;;;;;;2.41;0.70;;;;;;;3.65;82.14;98906.38;2030193;79;20359;-76
2022/01/08 12:52:18;;;;;;;2.36;1.00;;;;;;;3.65;82.30;98911.50;2029975;79;21372;-76
2022/01/08 12:55:20;;;;;;;2.01;0.75;;;;;;;3.64;81.89;98897.81;2031081;79;20379;-76
2022/01/08 12:58:36;;;;;;;1.76;0.71;;;;;;;3.72;82.40;98897.03;2030992;79;20795;-76
2022/01/08 13:01:45;;;;;;;1.24;0.60;;;;;;;3.78;82.80;98903.16;2029047;77;25678;-76
2022/01/08 13:04:52;;;;;;;2.94;1.01;;;;;;;3.79;82.22;98896.31;2031247;79;20339;-76
2022/01/08 13:07:55;;;;;;;1.56;0.63;;;;;;;3.86;82.58;98883.56;2030437;79;20161;-76
2022/01/08 13:11:04;;;;;;;0.79;0.49;;;;;;;3.90;82.13;98866.50;2030140;79;20415;-76
2022/01/08 13:14:14;;;;;;;0.89;0.60;;;;;;;3.99;82.12;98869.19;2030534;79;20945;-76
2022/01/08 13:17:22;;;;;;;2.05;1.05;;;;;;;4.05;82.05;98855.56;2028759;77;23398;-76
2022/01/08 13:20:26;;;;;;;2.64;0.54;;;;;;;4.07;81.30;98853.88;2030918;79;20342;-76
2022/01/08 13:23:29;;;;;;;2.94;0.59;;;;;;;4.11;80.97;98837.66;2030615;79;20321;-76
2022/01/08 13:26:37;;;;;;;1.67;0.61;;;;;;;4.20;81.94;98833.50;2030293;79;20940;-76
2022/01/08 13:29:42;;;;;;;1.04;0.30;;;;;;;4.22;80.79;98818.97;2034495;79;20424;-77
2022/01/08 13:32:45;;;;;;;1.59;0.50;;;;;;;4.18;80.64;98817.22;2028125;76;23111;-76
2022/01/08 13:36:04;;;;;;;0.43;0.40;;;;;;;4.18;81.01;98804.34;2032857;79;20352;-76
2022/01/08 13:39:09;;;;;;;0.98;0.40;;;;;;;4.23;80.84;98797.56;2031831;79;20474;-76
2022/01/08 13:42:20;;;;;;;2.83;0.91;;;;;;;4.22;80.68;98782.13;2031693;79;20431;-76
2022/01/08 13:45:25;;;;;;;1.39;0.52;;;;;;;4.21;80.08;98770.13;2031506;77;33023;-76
2022/01/08 13:48:28;;;;;;;0.80;0.44;;;;;;;4.20;80.35;98758.13;2025057;79;20363;-76
2022/01/08 13:51:32;;;;;;;0.71;0.40;;;;;;;4.15;80.09;98752.94;2028890;79;20326;-76
2022/01/08 13:54:34;;;;;;;0.59;0.41;;;;;;;4.11;79.96;98742.59;2024577;79;20354;-75
2022/01/08 13:57:38;;;;;;;1.25;0.50;;;;;;;4.09;80.14;98732.31;2025735;79;20367;-75
2022/01/08 14:00:44;;;;;;;1.05;0.30;;;;;;;4.11;80.54;98727.19;2023651;76;20844;-75
2022/01/08 14:03:49;;;;;;;1.48;0.44;;;;;;;4.09;81.00;98716.91;2029667;79;21155;-75
2022/01/08 14:06:53;;;;;;;2.85;0.88;;;;;;;4.10;81.54;98708.34;2030562;79;20342;-76
2022/01/08 14:09:58;;;;;;;1.08;0.40;;;;;;;4.11;81.98;98696.34;2029594;79;20313;-75
2022/01/08 14:13:18;;;;;;;0.57;0.40;;;;;;;4.07;82.11;98681.78;2030860;79;20453;-75
2022/01/08 14:16:33;;;;;;;1.36;0.47;;;;;;;4.05;82.13;98674.06;2026362;77;20314;-76
2022/01/08 14:19:36;;;;;;;1.23;0.45;;;;;;;4.00;81.92;98667.16;2026131;80;20342;-77
2022/01/08 14:22:38;;;;;;;0.70;0.49;;;;;;;3.93;82.13;98656.81;2026610;79;20330;-76
2022/01/08 14:25:41;;;;;;;3.34;0.51;;;;;;;3.93;82.95;98653.38;2029301;79;20463;-76
2022/01/08 14:29:16;;;;;;;1.84;0.49;;;;;;;3.89;83.50;98646.50;2025492;79;20335;-75
2022/01/08 14:32:27;;;;;;;0.82;0.50;;;;;;;3.80;83.90;98652.41;2023623;77;22058;-74
2022/01/08 14:35:30;;;;;;;0.64;0.40;;;;;;;3.70;84.80;98640.31;2025736;79;20334;-74
2022/01/08 14:38:48;;;;;;;1.09;0.50;;;;;;;3.66;85.32;98624.88;2026331;79;20442;-74
2022/01/08 14:41:54;;;;;;;0.64;0.40;;;;;;;3.60;85.56;98610.25;2028743;79;20397;-75
2022/01/08 14:45:02;;;;;;;1.29;0.39;;;;;;;3.52;85.79;98599.03;2026099;79;20319;-75
2022/01/08 14:48:15;;;;;;;0.73;0.40;;;;;;;3.50;86.40;98593.91;2025193;77;24522;-74
2022/01/08 14:51:18;;;;;;;1.41;0.30;;;;;;;3.51;86.98;98592.19;2027761;79;20346;-74
2022/01/08 14:54:28;;;;;;;3.01;0.40;;;;;;;3.49;87.74;98575.91;2023443;79;20892;-74
2022/01/08 14:57:31;;;;;;;2.16;0.39;;;;;;;3.50;88.19;98583.63;2024714;79;20339;-74
2022/01/08 15:00:34;;;;;;;2.33;0.40;;;;;;;3.39;88.07;98579.22;2022024;77;21260;-74
2022/01/08 15:03:37;;;;;;;0.38;0.31;;;;;;;3.37;88.51;98588.59;2025294;79;20319;-74